sensor_id;sensor_type;location;lat;lon;timestamp;temperature;humidity
73322;DHT22;61549;37.044;22.128;2022-08-18T00:00:50;30.90;42.80
73322;DHT22;61549;37.044;22.128;2022-08-18T00:03:16;30.80;42.90
73322;DHT22;61549;37.044;22.128;2022-08-18T00:05:44;30.70;42.90
73322;DHT22;61549;37.044;22.128;2022-08-18T00:08:10;30.60;41.80
73322;DHT22;61549;37.044;22.128;2022-08-18T00:10:40;30.60;42.60
73322;DHT22;61549;37.044;22.128;2022-08-18T00:13:06;30.60;42.30
73322;DHT22;61549;37.044;22.128;2022-08-18T00:15:32;30.70;42.30
73322;DHT22;61549;37.044;22.128;2022-08-18T00:17:58;30.60;42.10
73322;DHT22;61549;37.044;22.128;2022-08-18T00:20:24;30.60;42.00
73322;DHT22;61549;37.044;22.128;2022-08-18T00:22:50;30.50;42.70
73322;DHT22;61549;37.044;22.128;2022-08-18T00:25:18;30.40;42.70
73322;DHT22;61549;37.044;22.128;2022-08-18T00:27:44;30.30;42.10
73322;DHT22;61549;37.044;22.128;2022-08-18T00:30:14;30.30;42.10
73322;DHT22;61549;37.044;22.128;2022-08-18T00:32:47;30.20;42.10
73322;DHT22;61549;37.044;22.128;2022-08-18T00:35:19;30.30;42.50
73322;DHT22;61549;37.044;22.128;2022-08-18T00:37:46;30.20;42.00
73322;DHT22;61549;37.044;22.128;2022-08-18T00:40:17;30.20;42.30
73322;DHT22;61549;37.044;22.128;2022-08-18T00:42:47;30.20;42.40
73322;DHT22;61549;37.044;22.128;2022-08-18T00:45:27;30.20;42.60
73322;DHT22;61549;37.044;22.128;2022-08-18T00:47:53;30.10;42.50
73322;DHT22;61549;37.044;22.128;2022-08-18T00:50:38;30.10;43.10
73322;DHT22;61549;37.044;22.128;2022-08-18T00:53:13;30.10;43.50
73322;DHT22;61549;37.044;22.128;2022-08-18T00:55:43;30.00;43.90
73322;DHT22;61549;37.044;22.128;2022-08-18T00:58:33;30.00;44.50
73322;DHT22;61549;37.044;22.128;2022-08-18T01:01:03;29.90;44.90
73322;DHT22;61549;37.044;22.128;2022-08-18T01:03:30;29.90;45.20
73322;DHT22;61549;37.044;22.128;2022-08-18T01:06:05;29.90;45.60
73322;DHT22;61549;37.044;22.128;2022-08-18T01:08:32;29.80;45.50
73322;DHT22;61549;37.044;22.128;2022-08-18T01:10:59;29.80;45.70
73322;DHT22;61549;37.044;22.128;2022-08-18T01:13:28;29.80;45.60
73322;DHT22;61549;37.044;22.128;2022-08-18T01:15:56;29.80;45.60
73322;DHT22;61549;37.044;22.128;2022-08-18T01:18:22;29.80;45.60
73322;DHT22;61549;37.044;22.128;2022-08-18T01:21:22;29.70;45.60
73322;DHT22;61549;37.044;22.128;2022-08-18T01:24:10;29.70;45.80
73322;DHT22;61549;37.044;22.128;2022-08-18T01:26:39;29.70;45.90
73322;DHT22;61549;37.044;22.128;2022-08-18T01:29:16;29.70;45.80
73322;DHT22;61549;37.044;22.128;2022-08-18T01:31:52;29.60;45.80
73322;DHT22;61549;37.044;22.128;2022-08-18T01:34:24;29.60;45.90
73322;DHT22;61549;37.044;22.128;2022-08-18T01:36:51;29.50;45.70
73322;DHT22;61549;37.044;22.128;2022-08-18T01:39:19;29.50;46.00
73322;DHT22;61549;37.044;22.128;2022-08-18T01:41:45;29.50;45.90
73322;DHT22;61549;37.044;22.128;2022-08-18T01:44:11;29.40;45.50
73322;DHT22;61549;37.044;22.128;2022-08-18T01:46:39;29.30;45.60
73322;DHT22;61549;37.044;22.128;2022-08-18T01:49:06;29.30;45.70
73322;DHT22;61549;37.044;22.128;2022-08-18T01:51:33;29.30;45.50
73322;DHT22;61549;37.044;22.128;2022-08-18T01:54:00;29.30;45.10
73322;DHT22;61549;37.044;22.128;2022-08-18T01:56:26;29.20;44.90
73322;DHT22;61549;37.044;22.128;2022-08-18T01:58:54;29.20;44.30
73322;DHT22;61549;37.044;22.128;2022-08-18T02:01:22;29.10;44.50
73322;DHT22;61549;37.044;22.128;2022-08-18T02:03:52;29.10;45.00
73322;DHT22;61549;37.044;22.128;2022-08-18T02:06:20;29.00;45.10
73322;DHT22;61549;37.044;22.128;2022-08-18T02:08:46;29.00;45.40
73322;DHT22;61549;37.044;22.128;2022-08-18T02:11:13;29.00;45.60
73322;DHT22;61549;37.044;22.128;2022-08-18T02:13:39;29.00;45.90
73322;DHT22;61549;37.044;22.128;2022-08-18T02:16:06;28.90;46.20
73322;DHT22;61549;37.044;22.128;2022-08-18T02:18:35;28.90;46.40
73322;DHT22;61549;37.044;22.128;2022-08-18T02:21:13;28.90;46.70
73322;DHT22;61549;37.044;22.128;2022-08-18T02:23:41;28.90;46.90
73322;DHT22;61549;37.044;22.128;2022-08-18T02:26:09;28.90;47.20
73322;DHT22;61549;37.044;22.128;2022-08-18T02:28:35;28.80;47.40
73322;DHT22;61549;37.044;22.128;2022-08-18T02:31:10;28.80;47.60
73322;DHT22;61549;37.044;22.128;2022-08-18T02:33:36;28.80;47.70
73322;DHT22;61549;37.044;22.128;2022-08-18T02:36:03;28.70;47.90
73322;DHT22;61549;37.044;22.128;2022-08-18T02:38:29;28.70;48.10
73322;DHT22;61549;37.044;22.128;2022-08-18T02:41:01;28.70;48.30
73322;DHT22;61549;37.044;22.128;2022-08-18T02:43:28;28.70;48.50
73322;DHT22;61549;37.044;22.128;2022-08-18T02:45:54;28.60;48.60
73322;DHT22;61549;37.044;22.128;2022-08-18T02:48:20;28.60;48.80
73322;DHT22;61549;37.044;22.128;2022-08-18T02:51:09;28.60;48.90
73322;DHT22;61549;37.044;22.128;2022-08-18T02:53:37;28.60;49.10
73322;DHT22;61549;37.044;22.128;2022-08-18T02:56:14;28.60;49.50
73322;DHT22;61549;37.044;22.128;2022-08-18T02:58:49;28.60;49.80
73322;DHT22;61549;37.044;22.128;2022-08-18T03:01:17;28.60;50.20
73322;DHT22;61549;37.044;22.128;2022-08-18T03:03:43;28.60;50.50
73322;DHT22;61549;37.044;22.128;2022-08-18T03:06:09;28.60;50.60
73322;DHT22;61549;37.044;22.128;2022-08-18T03:08:34;28.70;50.80
73322;DHT22;61549;37.044;22.128;2022-08-18T03:11:00;28.70;50.90
73322;DHT22;61549;37.044;22.128;2022-08-18T03:13:26;28.70;50.90
73322;DHT22;61549;37.044;22.128;2022-08-18T03:15:55;28.70;50.90
73322;DHT22;61549;37.044;22.128;2022-08-18T03:18:21;28.70;50.90
73322;DHT22;61549;37.044;22.128;2022-08-18T03:20:48;28.70;50.90
73322;DHT22;61549;37.044;22.128;2022-08-18T03:23:15;28.70;50.70
73322;DHT22;61549;37.044;22.128;2022-08-18T03:25:46;28.70;50.60
73322;DHT22;61549;37.044;22.128;2022-08-18T03:28:13;28.70;50.20
73322;DHT22;61549;37.044;22.128;2022-08-18T03:30:39;28.70;50.30
73322;DHT22;61549;37.044;22.128;2022-08-18T03:33:05;28.70;50.10
73322;DHT22;61549;37.044;22.128;2022-08-18T03:35:34;28.70;50.20
73322;DHT22;61549;37.044;22.128;2022-08-18T03:38:01;28.70;50.20
73322;DHT22;61549;37.044;22.128;2022-08-18T03:40:27;28.70;49.60
73322;DHT22;61549;37.044;22.128;2022-08-18T03:42:53;28.70;49.10
73322;DHT22;61549;37.044;22.128;2022-08-18T03:45:18;28.70;48.50
73322;DHT22;61549;37.044;22.128;2022-08-18T03:47:44;28.70;48.40
73322;DHT22;61549;37.044;22.128;2022-08-18T03:50:11;28.60;48.60
73322;DHT22;61549;37.044;22.128;2022-08-18T03:52:37;28.60;48.80
73322;DHT22;61549;37.044;22.128;2022-08-18T03:55:04;28.60;48.90
73322;DHT22;61549;37.044;22.128;2022-08-18T03:57:30;28.50;49.00
73322;DHT22;61549;37.044;22.128;2022-08-18T03:59:57;28.50;48.90
73322;DHT22;61549;37.044;22.128;2022-08-18T04:02:24;28.40;48.70
73322;DHT22;61549;37.044;22.128;2022-08-18T04:04:50;28.40;48.70
73322;DHT22;61549;37.044;22.128;2022-08-18T04:07:15;28.30;48.50
73322;DHT22;61549;37.044;22.128;2022-08-18T04:09:42;28.30;48.40
73322;DHT22;61549;37.044;22.128;2022-08-18T04:12:11;28.20;48.50
73322;DHT22;61549;37.044;22.128;2022-08-18T04:14:39;28.20;48.50
73322;DHT22;61549;37.044;22.128;2022-08-18T04:17:05;28.30;48.80
73322;DHT22;61549;37.044;22.128;2022-08-18T04:19:31;28.30;48.80
73322;DHT22;61549;37.044;22.128;2022-08-18T04:21:59;28.30;49.00
73322;DHT22;61549;37.044;22.128;2022-08-18T04:24:27;28.20;49.00
73322;DHT22;61549;37.044;22.128;2022-08-18T04:26:54;28.10;49.10
73322;DHT22;61549;37.044;22.128;2022-08-18T04:29:21;28.20;49.50
73322;DHT22;61549;37.044;22.128;2022-08-18T04:31:48;28.10;49.70
73322;DHT22;61549;37.044;22.128;2022-08-18T04:34:15;28.10;50.00
73322;DHT22;61549;37.044;22.128;2022-08-18T04:36:41;28.10;50.30
73322;DHT22;61549;37.044;22.128;2022-08-18T04:39:10;28.10;50.40
73322;DHT22;61549;37.044;22.128;2022-08-18T04:41:40;28.10;50.40
73322;DHT22;61549;37.044;22.128;2022-08-18T04:44:08;28.20;50.60
73322;DHT22;61549;37.044;22.128;2022-08-18T04:46:37;28.20;50.80
73322;DHT22;61549;37.044;22.128;2022-08-18T04:49:04;28.10;50.80
73322;DHT22;61549;37.044;22.128;2022-08-18T04:51:30;28.20;51.00
73322;DHT22;61549;37.044;22.128;2022-08-18T04:53:57;28.20;51.30
73322;DHT22;61549;37.044;22.128;2022-08-18T04:56:35;28.20;51.50
73322;DHT22;61549;37.044;22.128;2022-08-18T04:59:09;28.30;52.20
73322;DHT22;61549;37.044;22.128;2022-08-18T05:01:41;28.30;53.20
73322;DHT22;61549;37.044;22.128;2022-08-18T05:04:07;28.30;54.00
73322;DHT22;61549;37.044;22.128;2022-08-18T05:06:35;28.40;54.30
73322;DHT22;61549;37.044;22.128;2022-08-18T05:09:04;28.40;54.40
73322;DHT22;61549;37.044;22.128;2022-08-18T05:11:32;28.50;54.60
73322;DHT22;61549;37.044;22.128;2022-08-18T05:14:00;28.60;55.70
73322;DHT22;61549;37.044;22.128;2022-08-18T05:16:29;28.70;56.50
73322;DHT22;61549;37.044;22.128;2022-08-18T05:19:01;28.70;56.50
73322;DHT22;61549;37.044;22.128;2022-08-18T05:21:29;28.80;57.20
73322;DHT22;61549;37.044;22.128;2022-08-18T05:23:55;28.80;57.70
73322;DHT22;61549;37.044;22.128;2022-08-18T05:26:21;28.90;58.10
73322;DHT22;61549;37.044;22.128;2022-08-18T05:28:47;29.00;57.90
73322;DHT22;61549;37.044;22.128;2022-08-18T05:31:18;29.10;57.50
73322;DHT22;61549;37.044;22.128;2022-08-18T05:33:45;29.20;57.00
73322;DHT22;61549;37.044;22.128;2022-08-18T05:39:03;29.40;56.10
73322;DHT22;61549;37.044;22.128;2022-08-18T05:41:38;29.50;56.10
73322;DHT22;61549;37.044;22.128;2022-08-18T05:44:06;29.40;56.00
73322;DHT22;61549;37.044;22.128;2022-08-18T05:47:18;29.50;56.10
73322;DHT22;61549;37.044;22.128;2022-08-18T05:49:36;29.50;56.10
73322;DHT22;61549;37.044;22.128;2022-08-18T05:52:10;29.60;55.80
73322;DHT22;61549;37.044;22.128;2022-08-18T05:54:52;29.60;54.40
73322;DHT22;61549;37.044;22.128;2022-08-18T05:57:47;29.80;52.60
73322;DHT22;61549;37.044;22.128;2022-08-18T06:00:19;29.90;53.50
73322;DHT22;61549;37.044;22.128;2022-08-18T06:05:35;29.90;51.90
73322;DHT22;61549;37.044;22.128;2022-08-18T06:08:11;29.90;50.30
73322;DHT22;61549;37.044;22.128;2022-08-18T06:10:41;30.00;50.70
73322;DHT22;61549;37.044;22.128;2022-08-18T06:13:09;30.10;51.60
73322;DHT22;61549;37.044;22.128;2022-08-18T06:15:47;30.20;51.30
73322;DHT22;61549;37.044;22.128;2022-08-18T06:21:03;30.30;51.20
73322;DHT22;61549;37.044;22.128;2022-08-18T06:24:03;30.50;50.60
73322;DHT22;61549;37.044;22.128;2022-08-18T06:35:21;31.20;48.90
73322;DHT22;61549;37.044;22.128;2022-08-18T06:40:39;31.80;47.50
73322;DHT22;61549;37.044;22.128;2022-08-18T06:43:11;32.10;46.70
73322;DHT22;61549;37.044;22.128;2022-08-18T06:45:40;32.30;46.20
73322;DHT22;61549;37.044;22.128;2022-08-18T06:50:54;32.70;44.70
73322;DHT22;61549;37.044;22.128;2022-08-18T06:53:20;32.60;44.80
73322;DHT22;61549;37.044;22.128;2022-08-18T06:55:49;32.70;44.60
73322;DHT22;61549;37.044;22.128;2022-08-18T07:01:01;32.90;43.80
73322;DHT22;61549;37.044;22.128;2022-08-18T07:06:22;33.00;41.80
73322;DHT22;61549;37.044;22.128;2022-08-18T07:08:54;33.20;41.70
73322;DHT22;61549;37.044;22.128;2022-08-18T07:13:52;33.30;40.80
73322;DHT22;61549;37.044;22.128;2022-08-18T07:18:54;33.50;39.80
73322;DHT22;61549;37.044;22.128;2022-08-18T07:21:33;33.30;40.90
73322;DHT22;61549;37.044;22.128;2022-08-18T07:24:12;33.30;41.90
73322;DHT22;61549;37.044;22.128;2022-08-18T07:29:28;33.50;41.60
73322;DHT22;61549;37.044;22.128;2022-08-18T07:31:58;33.50;41.00
73322;DHT22;61549;37.044;22.128;2022-08-18T07:34:38;33.50;40.10
73322;DHT22;61549;37.044;22.128;2022-08-18T07:37:16;33.60;39.70
73322;DHT22;61549;37.044;22.128;2022-08-18T07:40:18;33.60;40.60
73322;DHT22;61549;37.044;22.128;2022-08-18T07:42:43;33.60;40.10
73322;DHT22;61549;37.044;22.128;2022-08-18T07:45:18;33.50;41.10
73322;DHT22;61549;37.044;22.128;2022-08-18T07:53:31;33.70;40.50
73322;DHT22;61549;37.044;22.128;2022-08-18T07:56:06;33.80;41.00
73322;DHT22;61549;37.044;22.128;2022-08-18T07:58:46;33.90;39.40
73322;DHT22;61549;37.044;22.128;2022-08-18T08:01:40;34.00;40.10
73322;DHT22;61549;37.044;22.128;2022-08-18T08:04:16;34.00;40.40
73322;DHT22;61549;37.044;22.128;2022-08-18T08:07:01;34.10;39.10
73322;DHT22;61549;37.044;22.128;2022-08-18T08:12:41;34.10;41.10
73322;DHT22;61549;37.044;22.128;2022-08-18T08:15:18;34.00;42.10
73322;DHT22;61549;37.044;22.128;2022-08-18T08:18:03;34.20;42.00
73322;DHT22;61549;37.044;22.128;2022-08-18T08:20:53;34.30;41.10
73322;DHT22;61549;37.044;22.128;2022-08-18T08:29:10;34.20;40.40
73322;DHT22;61549;37.044;22.128;2022-08-18T08:32:20;34.30;38.60
73322;DHT22;61549;37.044;22.128;2022-08-18T08:34:58;34.30;40.30
73322;DHT22;61549;37.044;22.128;2022-08-18T08:37:42;34.30;41.60
73322;DHT22;61549;37.044;22.128;2022-08-18T08:40:46;34.30;42.60
73322;DHT22;61549;37.044;22.128;2022-08-18T08:43:37;34.30;41.50
73322;DHT22;61549;37.044;22.128;2022-08-18T08:46:21;34.30;41.40
73322;DHT22;61549;37.044;22.128;2022-08-18T08:49:18;34.20;40.70
73322;DHT22;61549;37.044;22.128;2022-08-18T08:51:51;34.20;40.10
73322;DHT22;61549;37.044;22.128;2022-08-18T08:55:04;34.30;41.50
73322;DHT22;61549;37.044;22.128;2022-08-18T08:57:31;34.50;39.20
73322;DHT22;61549;37.044;22.128;2022-08-18T09:00:01;34.60;39.20
73322;DHT22;61549;37.044;22.128;2022-08-18T09:05:34;34.60;40.50
73322;DHT22;61549;37.044;22.128;2022-08-18T09:08:29;34.30;40.60
73322;DHT22;61549;37.044;22.128;2022-08-18T09:19:52;34.70;38.20
73322;DHT22;61549;37.044;22.128;2022-08-18T09:24:57;34.80;38.40
73322;DHT22;61549;37.044;22.128;2022-08-18T09:29:58;34.80;38.90
73322;DHT22;61549;37.044;22.128;2022-08-18T09:35:02;34.70;39.30
73322;DHT22;61549;37.044;22.128;2022-08-18T09:40:14;34.70;41.30
73322;DHT22;61549;37.044;22.128;2022-08-18T09:43:38;34.80;40.50
73322;DHT22;61549;37.044;22.128;2022-08-18T09:46:05;34.80;39.40
73322;DHT22;61549;37.044;22.128;2022-08-18T09:48:36;34.90;40.20
73322;DHT22;61549;37.044;22.128;2022-08-18T10:02:03;35.20;37.70
73322;DHT22;61549;37.044;22.128;2022-08-18T10:04:41;35.20;37.90
73322;DHT22;61549;37.044;22.128;2022-08-18T10:07:20;35.30;39.40
73322;DHT22;61549;37.044;22.128;2022-08-18T10:10:10;35.30;36.80
73322;DHT22;61549;37.044;22.128;2022-08-18T10:23:10;35.20;41.80
73322;DHT22;61549;37.044;22.128;2022-08-18T10:25:43;35.20;42.20
73322;DHT22;61549;37.044;22.128;2022-08-18T10:31:16;35.30;42.40
73322;DHT22;61549;37.044;22.128;2022-08-18T10:36:45;35.50;39.40
73322;DHT22;61549;37.044;22.128;2022-08-18T10:39:19;35.50;39.40
73322;DHT22;61549;37.044;22.128;2022-08-18T10:45:22;36.00;39.50
73322;DHT22;61549;37.044;22.128;2022-08-18T10:50:39;36.10;35.50
73322;DHT22;61549;37.044;22.128;2022-08-18T10:53:21;36.30;34.80
73322;DHT22;61549;37.044;22.128;2022-08-18T11:01:14;36.40;34.40
73322;DHT22;61549;37.044;22.128;2022-08-18T11:06:27;36.50;32.90
73322;DHT22;61549;37.044;22.128;2022-08-18T11:08:59;36.40;34.40
73322;DHT22;61549;37.044;22.128;2022-08-18T11:11:37;36.40;33.70
73322;DHT22;61549;37.044;22.128;2022-08-18T11:17:32;36.50;32.80
73322;DHT22;61549;37.044;22.128;2022-08-18T11:20:00;36.30;33.90
73322;DHT22;61549;37.044;22.128;2022-08-18T11:22:32;36.40;35.30
73322;DHT22;61549;37.044;22.128;2022-08-18T11:24:59;36.40;34.30
73322;DHT22;61549;37.044;22.128;2022-08-18T11:27:28;36.50;34.00
73322;DHT22;61549;37.044;22.128;2022-08-18T11:29:59;36.50;35.10
73322;DHT22;61549;37.044;22.128;2022-08-18T11:32:29;36.60;35.20
73322;DHT22;61549;37.044;22.128;2022-08-18T11:40:39;36.00;36.90
73322;DHT22;61549;37.044;22.128;2022-08-18T11:43:11;35.80;37.50
73322;DHT22;61549;37.044;22.128;2022-08-18T11:56:24;35.50;35.10
73322;DHT22;61549;37.044;22.128;2022-08-18T11:58:56;35.60;35.70
73322;DHT22;61549;37.044;22.128;2022-08-18T12:04:37;35.60;35.10
73322;DHT22;61549;37.044;22.128;2022-08-18T12:07:10;35.90;35.30
73322;DHT22;61549;37.044;22.128;2022-08-18T12:12:17;36.10;33.40
73322;DHT22;61549;37.044;22.128;2022-08-18T12:15:23;36.20;32.80
73322;DHT22;61549;37.044;22.128;2022-08-18T12:17:50;36.10;32.90
73322;DHT22;61549;37.044;22.128;2022-08-18T12:20:16;36.00;33.30
73322;DHT22;61549;37.044;22.128;2022-08-18T12:22:43;36.10;33.40
73322;DHT22;61549;37.044;22.128;2022-08-18T12:25:13;36.20;33.50
73322;DHT22;61549;37.044;22.128;2022-08-18T12:27:40;36.30;32.90
73322;DHT22;61549;37.044;22.128;2022-08-18T12:30:07;36.10;31.60
73322;DHT22;61549;37.044;22.128;2022-08-18T12:32:34;36.10;32.20
73322;DHT22;61549;37.044;22.128;2022-08-18T12:35:02;36.20;32.30
73322;DHT22;61549;37.044;22.128;2022-08-18T12:37:28;36.10;31.60
73322;DHT22;61549;37.044;22.128;2022-08-18T12:39:57;36.20;31.30
73322;DHT22;61549;37.044;22.128;2022-08-18T12:42:24;36.20;31.20
73322;DHT22;61549;37.044;22.128;2022-08-18T12:44:50;36.30;31.30
73322;DHT22;61549;37.044;22.128;2022-08-18T12:47:19;36.50;31.20
73322;DHT22;61549;37.044;22.128;2022-08-18T12:49:47;36.40;30.90
73322;DHT22;61549;37.044;22.128;2022-08-18T12:52:13;36.50;30.80
73322;DHT22;61549;37.044;22.128;2022-08-18T12:54:39;36.40;30.90
73322;DHT22;61549;37.044;22.128;2022-08-18T12:57:22;36.50;31.00
73322;DHT22;61549;37.044;22.128;2022-08-18T12:59:49;36.70;31.50
73322;DHT22;61549;37.044;22.128;2022-08-18T13:02:15;36.80;31.10
73322;DHT22;61549;37.044;22.128;2022-08-18T13:04:42;36.80;30.80
73322;DHT22;61549;37.044;22.128;2022-08-18T13:07:10;36.70;30.50
73322;DHT22;61549;37.044;22.128;2022-08-18T13:09:37;36.60;30.60
73322;DHT22;61549;37.044;22.128;2022-08-18T13:12:04;36.70;30.80
73322;DHT22;61549;37.044;22.128;2022-08-18T13:14:31;36.90;30.20
73322;DHT22;61549;37.044;22.128;2022-08-18T13:16:57;37.00;30.00
73322;DHT22;61549;37.044;22.128;2022-08-18T13:19:23;37.10;30.30
73322;DHT22;61549;37.044;22.128;2022-08-18T13:21:50;37.20;30.10
73322;DHT22;61549;37.044;22.128;2022-08-18T13:24:16;37.30;30.10
73322;DHT22;61549;37.044;22.128;2022-08-18T13:26:44;37.40;30.10
73322;DHT22;61549;37.044;22.128;2022-08-18T13:29:10;37.40;30.50
73322;DHT22;61549;37.044;22.128;2022-08-18T13:31:37;37.50;29.80
73322;DHT22;61549;37.044;22.128;2022-08-18T13:34:05;37.60;29.90
73322;DHT22;61549;37.044;22.128;2022-08-18T13:36:34;37.70;30.10
73322;DHT22;61549;37.044;22.128;2022-08-18T13:39:17;37.70;30.80
73322;DHT22;61549;37.044;22.128;2022-08-18T13:41:45;37.50;30.70
73322;DHT22;61549;37.044;22.128;2022-08-18T13:44:12;37.30;30.40
73322;DHT22;61549;37.044;22.128;2022-08-18T13:46:39;37.20;30.90
73322;DHT22;61549;37.044;22.128;2022-08-18T13:49:16;37.10;31.10
73322;DHT22;61549;37.044;22.128;2022-08-18T13:51:44;37.00;32.10
73322;DHT22;61549;37.044;22.128;2022-08-18T13:54:23;37.00;31.90
73322;DHT22;61549;37.044;22.128;2022-08-18T13:56:49;37.00;31.40
73322;DHT22;61549;37.044;22.128;2022-08-18T13:59:16;37.00;31.50
73322;DHT22;61549;37.044;22.128;2022-08-18T14:01:42;36.90;31.30
73322;DHT22;61549;37.044;22.128;2022-08-18T14:04:09;36.90;31.80
73322;DHT22;61549;37.044;22.128;2022-08-18T14:06:37;36.90;31.90
73322;DHT22;61549;37.044;22.128;2022-08-18T14:09:04;37.10;31.40
73322;DHT22;61549;37.044;22.128;2022-08-18T14:11:31;37.20;31.30
73322;DHT22;61549;37.044;22.128;2022-08-18T14:13:58;37.20;31.50
73322;DHT22;61549;37.044;22.128;2022-08-18T14:16:26;37.10;30.80
73322;DHT22;61549;37.044;22.128;2022-08-18T14:18:52;37.00;31.00
73322;DHT22;61549;37.044;22.128;2022-08-18T14:21:42;37.10;30.50
73322;DHT22;61549;37.044;22.128;2022-08-18T14:24:27;37.20;30.90
73322;DHT22;61549;37.044;22.128;2022-08-18T14:27:12;37.20;30.80
73322;DHT22;61549;37.044;22.128;2022-08-18T14:29:38;37.10;31.80
73322;DHT22;61549;37.044;22.128;2022-08-18T14:32:07;37.10;31.90
73322;DHT22;61549;37.044;22.128;2022-08-18T14:34:33;37.20;31.80
73322;DHT22;61549;37.044;22.128;2022-08-18T14:36:59;37.20;31.00
73322;DHT22;61549;37.044;22.128;2022-08-18T14:39:24;37.10;31.30
73322;DHT22;61549;37.044;22.128;2022-08-18T14:41:50;36.90;31.10
73322;DHT22;61549;37.044;22.128;2022-08-18T14:44:16;36.70;31.40
73322;DHT22;61549;37.044;22.128;2022-08-18T14:46:42;36.70;31.80
73322;DHT22;61549;37.044;22.128;2022-08-18T14:49:13;36.90;31.90
73322;DHT22;61549;37.044;22.128;2022-08-18T14:51:46;36.90;31.80
73322;DHT22;61549;37.044;22.128;2022-08-18T14:54:15;36.80;32.00
73322;DHT22;61549;37.044;22.128;2022-08-18T14:56:41;36.70;33.50
73322;DHT22;61549;37.044;22.128;2022-08-18T14:59:08;36.60;34.40
73322;DHT22;61549;37.044;22.128;2022-08-18T15:01:35;36.70;34.70
73322;DHT22;61549;37.044;22.128;2022-08-18T15:04:02;36.80;33.70
73322;DHT22;61549;37.044;22.128;2022-08-18T15:06:29;36.80;33.20
73322;DHT22;61549;37.044;22.128;2022-08-18T15:08:55;36.90;32.40
73322;DHT22;61549;37.044;22.128;2022-08-18T15:11:21;37.00;31.80
73322;DHT22;61549;37.044;22.128;2022-08-18T15:13:47;37.10;31.00
73322;DHT22;61549;37.044;22.128;2022-08-18T15:16:14;37.10;31.40
73322;DHT22;61549;37.044;22.128;2022-08-18T15:18:44;37.00;30.50
73322;DHT22;61549;37.044;22.128;2022-08-18T15:21:11;37.00;30.50
73322;DHT22;61549;37.044;22.128;2022-08-18T15:23:55;36.90;30.80
73322;DHT22;61549;37.044;22.128;2022-08-18T15:26:39;37.00;30.80
73322;DHT22;61549;37.044;22.128;2022-08-18T15:29:07;37.00;30.80
73322;DHT22;61549;37.044;22.128;2022-08-18T15:31:33;37.00;30.50
73322;DHT22;61549;37.044;22.128;2022-08-18T15:33:59;37.00;30.00
73322;DHT22;61549;37.044;22.128;2022-08-18T15:36:25;37.00;30.20
73322;DHT22;61549;37.044;22.128;2022-08-18T15:38:51;36.90;30.40
73322;DHT22;61549;37.044;22.128;2022-08-18T15:41:32;36.90;30.70
73322;DHT22;61549;37.044;22.128;2022-08-18T15:43:59;37.00;30.50
73322;DHT22;61549;37.044;22.128;2022-08-18T15:46:26;37.00;30.20
73322;DHT22;61549;37.044;22.128;2022-08-18T15:48:54;37.00;30.80
73322;DHT22;61549;37.044;22.128;2022-08-18T15:51:20;37.00;30.70
73322;DHT22;61549;37.044;22.128;2022-08-18T15:53:46;37.00;30.90
73322;DHT22;61549;37.044;22.128;2022-08-18T15:56:18;37.00;31.00
73322;DHT22;61549;37.044;22.128;2022-08-18T15:58:44;37.10;30.90
73322;DHT22;61549;37.044;22.128;2022-08-18T16:01:12;37.10;30.90
73322;DHT22;61549;37.044;22.128;2022-08-18T16:03:38;37.20;30.70
73322;DHT22;61549;37.044;22.128;2022-08-18T16:06:05;37.20;30.90
73322;DHT22;61549;37.044;22.128;2022-08-18T16:08:35;37.00;31.40
73322;DHT22;61549;37.044;22.128;2022-08-18T16:11:07;36.90;31.40
73322;DHT22;61549;37.044;22.128;2022-08-18T16:13:33;37.10;32.20
73322;DHT22;61549;37.044;22.128;2022-08-18T16:15:59;36.80;32.10
73322;DHT22;61549;37.044;22.128;2022-08-18T16:18:25;36.80;32.30
73322;DHT22;61549;37.044;22.128;2022-08-18T16:20:52;36.80;32.30
73322;DHT22;61549;37.044;22.128;2022-08-18T16:23:17;36.80;32.40
73322;DHT22;61549;37.044;22.128;2022-08-18T16:25:43;36.60;32.40
73322;DHT22;61549;37.044;22.128;2022-08-18T16:28:10;36.80;32.60
73322;DHT22;61549;37.044;22.128;2022-08-18T16:30:39;36.60;32.50
73322;DHT22;61549;37.044;22.128;2022-08-18T16:33:05;36.50;32.80
73322;DHT22;61549;37.044;22.128;2022-08-18T16:35:32;36.40;33.20
73322;DHT22;61549;37.044;22.128;2022-08-18T16:38:04;36.50;33.30
73322;DHT22;61549;37.044;22.128;2022-08-18T16:40:31;36.60;33.90
73322;DHT22;61549;37.044;22.128;2022-08-18T16:42:57;36.60;34.30
73322;DHT22;61549;37.044;22.128;2022-08-18T16:45:25;36.50;34.40
73322;DHT22;61549;37.044;22.128;2022-08-18T16:47:53;36.60;35.20
73322;DHT22;61549;37.044;22.128;2022-08-18T16:50:19;36.70;34.80
73322;DHT22;61549;37.044;22.128;2022-08-18T16:52:45;36.60;34.60
73322;DHT22;61549;37.044;22.128;2022-08-18T16:55:11;36.50;34.80
73322;DHT22;61549;37.044;22.128;2022-08-18T16:57:39;36.60;34.90
73322;DHT22;61549;37.044;22.128;2022-08-18T17:00:24;36.60;35.20
73322;DHT22;61549;37.044;22.128;2022-08-18T17:03:09;36.60;35.00
73322;DHT22;61549;37.044;22.128;2022-08-18T17:06:04;36.50;35.10
73322;DHT22;61549;37.044;22.128;2022-08-18T17:08:31;36.40;35.30
73322;DHT22;61549;37.044;22.128;2022-08-18T17:11:03;36.30;36.30
73322;DHT22;61549;37.044;22.128;2022-08-18T17:13:30;36.30;36.60
73322;DHT22;61549;37.044;22.128;2022-08-18T17:15:56;36.30;36.80
73322;DHT22;61549;37.044;22.128;2022-08-18T17:18:23;36.20;36.70
73322;DHT22;61549;37.044;22.128;2022-08-18T17:20:50;36.20;36.60
73322;DHT22;61549;37.044;22.128;2022-08-18T17:23:19;36.10;36.70
73322;DHT22;61549;37.044;22.128;2022-08-18T17:25:45;36.10;37.20
73322;DHT22;61549;37.044;22.128;2022-08-18T17:28:12;36.00;37.40
73322;DHT22;61549;37.044;22.128;2022-08-18T17:30:44;35.90;37.60
73322;DHT22;61549;37.044;22.128;2022-08-18T17:33:15;35.80;37.60
73322;DHT22;61549;37.044;22.128;2022-08-18T17:35:44;35.70;38.10
73322;DHT22;61549;37.044;22.128;2022-08-18T17:38:13;35.60;38.70
73322;DHT22;61549;37.044;22.128;2022-08-18T17:40:51;35.60;39.30
73322;DHT22;61549;37.044;22.128;2022-08-18T17:43:20;35.50;39.50
73322;DHT22;61549;37.044;22.128;2022-08-18T17:45:57;35.40;39.70
73322;DHT22;61549;37.044;22.128;2022-08-18T17:48:41;35.30;40.00
73322;DHT22;61549;37.044;22.128;2022-08-18T17:51:15;35.20;40.00
73322;DHT22;61549;37.044;22.128;2022-08-18T17:54:34;35.20;40.10
73322;DHT22;61549;37.044;22.128;2022-08-18T17:57:13;35.10;40.30
73322;DHT22;61549;37.044;22.128;2022-08-18T18:00:00;35.00;40.60